Time;durP1;ratioP1;P1;durP2;ratioP2;P2;SDS_P1;SDS_P2;PMS_P1;PMS_P2;Temp;Humidity;BMP_temperature;BMP_pressure;BME280_temperature;BME280_humidity;BME280_pressure;Samples;Min_cycle;Max_cycle;Signal;HPM_P1;HPM_P2
2021/11/15 00:00:50;;;;;;;23.10;12.27;;;9.20;99.90;;;;;;4911910;29;20084;-77
2021/11/15 06:01:50;;;;;;;17.58;9.77;;;8.50;99.90;;;;;;5306227;23;20741;-78
2021/11/15 06:04:17;;;;;;;17.00;9.63;;;8.60;99.90;;;;;;4936672;29;20122;-80
2021/11/15 06:06:45;;;;;;;18.30;10.15;;;8.60;99.90;;;;;;4936485;29;20143;-78
2021/11/15 06:09:12;;;;;;;17.33;9.93;;;8.60;99.90;;;;;;4936500;29;20047;-79
2021/11/15 06:11:39;;;;;;;15.70;9.65;;;8.60;99.90;;;;;;4936327;29;20509;-77
2021/11/15 06:14:06;;;;;;;15.45;9.60;;;8.60;99.90;;;;;;4936093;29;20139;-77
2021/11/15 06:16:34;;;;;;;17.00;10.50;;;8.60;99.90;;;;;;4936392;29;20138;-80
2021/11/15 06:19:02;;;;;;;18.65;10.35;;;8.60;99.90;;;;;;4936254;29;20143;-78
2021/11/15 06:21:29;;;;;;;17.65;10.20;;;8.60;99.90;;;;;;4936161;29;20131;-78
2021/11/15 06:23:56;;;;;;;17.08;10.05;;;8.60;99.90;;;;;;4935994;29;20124;-79
2021/11/15 06:26:23;;;;;;;18.30;10.50;;;8.60;99.90;;;;;;4935920;29;20147;-80
2021/11/15 06:28:51;;;;;;;17.13;10.55;;;8.60;99.90;;;;;;4935818;29;20079;-78
2021/11/15 06:31:19;;;;;;;18.00;9.50;;;8.60;99.90;;;;;;4936013;29;20087;-79
2021/11/15 06:33:49;;;;;;;16.25;9.95;;;8.60;99.90;;;;;;4935950;29;20417;-78
2021/11/15 06:36:18;;;;;;;17.75;9.68;;;8.60;99.90;;;;;;4936012;29;20067;-80
2021/11/15 06:38:45;;;;;;;18.27;9.93;;;8.60;99.90;;;;;;4935793;29;20052;-79
2021/11/15 06:41:12;;;;;;;19.00;9.90;;;8.60;99.90;;;;;;4935657;29;20663;-80
2021/11/15 06:43:39;;;;;;;21.08;10.88;;;8.50;99.90;;;;;;4935423;29;20147;-80
2021/11/15 06:46:07;;;;;;;18.58;10.48;;;8.50;99.90;;;;;;4935787;29;20143;-80
2021/11/15 06:48:40;;;;;;;18.50;11.18;;;8.50;99.90;;;;;;4935726;29;20055;-79
2021/11/15 06:51:08;;;;;;;21.23;11.32;;;8.50;99.90;;;;;;4935560;29;20399;-79
2021/11/15 06:53:38;;;;;;;20.25;10.90;;;8.40;99.90;;;;;;4935543;29;20078;-79
2021/11/15 06:56:06;;;;;;;18.58;10.25;;;8.50;99.90;;;;;;4935606;29;20138;-79
2021/11/15 06:58:34;;;;;;;18.48;10.50;;;8.50;99.90;;;;;;4935598;29;20143;-77
2021/11/15 07:01:02;;;;;;;17.65;10.23;;;8.50;99.90;;;;;;4929870;29;20135;-79
2021/11/15 07:03:30;;;;;;;16.60;10.02;;;8.50;99.90;;;;;;4916554;29;20210;-78
2021/11/15 07:05:57;;;;;;;17.80;9.45;;;8.40;99.90;;;;;;4917040;29;20194;-79
2021/11/15 07:08:24;;;;;;;16.00;9.48;;;8.50;99.90;;;;;;4915472;29;20072;-75
2021/11/15 07:10:53;;;;;;;17.35;9.75;;;8.40;99.90;;;;;;4916881;29;20123;-77
2021/11/15 07:13:20;;;;;;;15.70;9.48;;;8.40;99.90;;;;;;4916429;29;20490;-77
2021/11/15 07:15:49;;;;;;;17.08;9.35;;;8.40;99.90;;;;;;4925853;29;20484;-78
2021/11/15 07:18:17;;;;;;;14.88;9.00;;;8.40;99.90;;;;;;4934980;29;20062;-78
2021/11/15 07:20:45;;;;;;;16.02;9.35;;;8.40;99.90;;;;;;4935106;29;20524;-79
2021/11/15 07:23:12;;;;;;;16.38;9.25;;;8.40;99.90;;;;;;4935475;29;20131;-79
2021/11/15 07:25:40;;;;;;;16.80;9.25;;;8.40;99.90;;;;;;4935218;29;20130;-78
2021/11/15 07:28:08;;;;;;;16.95;9.25;;;8.40;99.90;;;;;;4935239;29;20150;-78
2021/11/15 07:30:36;;;;;;;15.68;8.38;;;8.30;99.90;;;;;;4924940;29;20055;-77
2021/11/15 07:33:03;;;;;;;13.90;8.50;;;8.30;99.90;;;;;;4915880;29;20143;-79
2021/11/15 07:35:30;;;;;;;16.75;9.45;;;8.40;99.90;;;;;;4915750;29;20083;-79
2021/11/15 07:37:57;;;;;;;15.25;8.75;;;8.40;99.90;;;;;;4915929;29;20091;-78
2021/11/15 07:40:25;;;;;;;15.15;8.98;;;8.40;99.90;;;;;;4928536;29;20106;-78
2021/11/15 07:42:52;;;;;;;15.00;8.95;;;8.30;99.90;;;;;;4916132;29;20413;-77
2021/11/15 07:45:21;;;;;;;15.82;9.65;;;8.30;99.90;;;;;;4915283;29;20087;-78
2021/11/15 07:47:48;;;;;;;17.02;9.38;;;8.30;99.90;;;;;;4924254;29;20131;-80
2021/11/15 07:50:16;;;;;;;16.10;9.65;;;8.30;99.90;;;;;;4934412;29;20138;-79
2021/11/15 07:52:44;;;;;;;19.70;9.30;;;8.30;99.90;;;;;;4934800;29;20138;-79
2021/11/15 07:55:14;;;;;;;16.13;10.05;;;8.30;99.90;;;;;;4929232;29;20147;-79
2021/11/15 07:57:42;;;;;;;16.73;9.57;;;8.40;99.90;;;;;;4915705;29;20091;-79
2021/11/15 08:00:12;;;;;;;17.95;9.88;;;8.30;99.90;;;;;;4915899;29;20056;-79
2021/11/15 08:02:41;;;;;;;14.40;8.10;;;8.40;99.90;;;;;;4917121;29;20450;-77
2021/11/15 08:05:10;;;;;;;18.27;10.07;;;8.30;99.90;;;;;;4919642;29;20075;-80
2021/11/15 08:07:37;;;;;;;16.13;9.35;;;8.40;99.90;;;;;;4934485;29;20087;-78
2021/11/15 08:10:06;;;;;;;18.38;10.20;;;8.40;99.90;;;;;;4934515;29;20134;-79
2021/11/15 08:12:38;;;;;;;15.85;9.55;;;8.40;99.90;;;;;;4934592;29;20127;-79
2021/11/15 08:15:08;;;;;;;17.52;9.68;;;8.40;99.90;;;;;;4934140;29;20512;-80
2021/11/15 08:17:37;;;;;;;15.95;8.90;;;8.40;99.90;;;;;;4934640;29;20082;-79
2021/11/15 08:20:08;;;;;;;15.88;8.73;;;8.40;99.90;;;;;;4935865;29;20063;-80
2021/11/15 08:22:36;;;;;;;14.43;8.25;;;8.40;99.90;;;;;;4938279;29;20548;-78
2021/11/15 08:26:03;;;;;;;13.65;7.82;;;8.40;99.90;;;;;;4938204;29;20048;-80
2021/11/15 08:28:31;;;;;;;15.13;8.75;;;8.40;99.90;;;;;;4913832;29;20454;-77
2021/11/15 08:31:00;;;;;;;14.75;7.93;;;8.40;99.90;;;;;;4938241;29;20152;-78
2021/11/15 08:33:28;;;;;;;15.07;8.60;;;8.40;99.90;;;;;;4932501;29;20123;-79
2021/11/15 08:35:57;;;;;;;15.07;8.70;;;8.50;99.90;;;;;;4918956;29;20104;-78
2021/11/15 08:38:46;;;;;;;14.52;8.40;;;8.50;99.90;;;;;;4918867;29;20169;-80
2021/11/15 08:41:17;;;;;;;15.07;8.13;;;8.50;99.90;;;;;;4918996;29;20501;-80
2021/11/15 08:43:44;;;;;;;12.35;7.80;;;8.50;99.90;;;;;;4918892;29;20077;-79
2021/11/15 08:46:15;;;;;;;14.32;8.13;;;8.50;99.90;;;;;;4926081;29;20048;-79
2021/11/15 08:48:45;;;;;;;13.15;7.68;;;8.50;99.90;;;;;;4928717;29;20051;-76
2021/11/15 08:51:16;;;;;;;15.07;8.23;;;8.50;99.90;;;;;;4918949;29;20151;-79
2021/11/15 08:53:44;;;;;;;12.85;7.53;;;8.50;99.90;;;;;;4918738;29;20143;-79
2021/11/15 08:56:11;;;;;;;11.93;7.07;;;8.50;99.90;;;;;;4918691;29;20139;-79
2021/11/15 08:58:39;;;;;;;12.27;7.18;;;8.50;99.90;;;;;;4918571;29;20490;-77
2021/11/15 09:01:07;;;;;;;12.98;7.28;;;8.50;99.90;;;;;;4918539;29;20139;-77
2021/11/15 09:03:38;;;;;;;13.93;7.72;;;8.50;99.90;;;;;;4928814;29;20087;-79
2021/11/15 09:06:06;;;;;;;14.00;7.88;;;8.50;99.90;;;;;;4937832;29;20068;-79
2021/11/15 09:08:35;;;;;;;13.50;7.40;;;8.50;99.90;;;;;;4937438;29;20146;-79
2021/11/15 09:11:03;;;;;;;12.38;7.40;;;8.60;99.90;;;;;;4937133;29;20134;-79
2021/11/15 09:13:30;;;;;;;13.05;6.97;;;8.60;99.90;;;;;;4937378;29;20130;-80
2021/11/15 09:15:57;;;;;;;13.20;7.72;;;8.60;99.90;;;;;;4937589;29;20082;-79
2021/11/15 09:18:25;;;;;;;13.32;6.75;;;8.60;99.90;;;;;;4935732;29;20138;-80
2021/11/15 09:20:53;;;;;;;12.18;6.93;;;8.60;99.90;;;;;;4937302;29;20056;-77
2021/11/15 09:23:20;;;;;;;13.00;7.38;;;8.60;99.90;;;;;;4928355;29;20130;-79
2021/11/15 09:25:49;;;;;;;12.00;7.60;;;8.60;99.90;;;;;;4918182;29;20048;-78
2021/11/15 09:28:16;;;;;;;13.45;7.20;;;8.60;99.90;;;;;;4918187;29;20143;-79
2021/11/15 09:30:45;;;;;;;13.43;7.07;;;8.60;99.90;;;;;;4917176;29;20138;-80
2021/11/15 09:33:12;;;;;;;11.95;6.60;;;8.50;99.90;;;;;;4918061;29;20517;-77
2021/11/15 09:35:44;;;;;;;14.30;7.40;;;8.60;99.90;;;;;;4917977;29;20115;-80
2021/11/15 09:38:11;;;;;;;11.65;6.80;;;8.60;99.90;;;;;;4918898;29;20104;-80
2021/11/15 09:40:38;;;;;;;13.52;6.90;;;8.60;99.90;;;;;;4918100;29;20581;-78
2021/11/15 09:43:06;;;;;;;12.88;7.05;;;8.60;99.90;;;;;;4917908;29;20131;-79
2021/11/15 09:45:33;;;;;;;11.65;6.68;;;8.60;99.90;;;;;;4917661;29;20135;-76
2021/11/15 09:48:01;;;;;;;11.73;6.97;;;8.60;99.90;;;;;;4917757;29;20143;-79
2021/11/15 09:50:29;;;;;;;12.93;6.70;;;8.60;99.90;;;;;;4917697;29;20080;-80
2021/11/15 09:52:56;;;;;;;12.15;6.72;;;8.60;99.90;;;;;;4923173;29;20135;-78
2021/11/15 09:55:24;;;;;;;11.02;6.13;;;8.60;99.90;;;;;;4936509;29;20139;-79
2021/11/15 09:57:51;;;;;;;12.25;6.50;;;8.60;99.90;;;;;;4936692;29;20075;-80
2021/11/15 10:00:23;;;;;;;12.30;6.30;;;8.60;99.90;;;;;;4934539;29;20130;-80
2021/11/15 10:02:52;;;;;;;14.18;8.00;;;8.60;99.90;;;;;;4919351;29;20060;-79
2021/11/15 10:05:21;;;;;;;12.98;6.90;;;8.60;99.90;;;;;;4918497;29;20139;-80
2021/11/15 10:07:52;;;;;;;12.40;6.65;;;8.60;99.90;;;;;;4929814;29;20098;-80
2021/11/15 10:10:35;;;;;;;14.63;7.22;;;8.60;99.90;;;;;;4930508;29;20062;-78
2021/11/15 10:13:05;;;;;;;13.23;7.20;;;8.60;99.90;;;;;;4924751;29;20426;-80
2021/11/15 10:15:48;;;;;;;14.27;6.80;;;8.60;99.90;;;;;;4932887;29;20134;-78
2021/11/15 10:18:21;;;;;;;11.20;6.43;;;8.60;99.90;;;;;;4927414;29;20090;-79
2021/11/15 10:20:51;;;;;;;13.68;7.07;;;8.70;99.90;;;;;;4927049;29;20083;-78
2021/11/15 10:23:35;;;;;;;11.93;6.55;;;8.70;99.90;;;;;;4932640;29;20130;-78
2021/11/15 10:26:09;;;;;;;;;;;8.70;99.90;;;;;;4932604;29;20130;-77
2021/11/15 10:28:37;;;;;;;13.50;6.28;;;8.70;99.90;;;;;;4932553;29;19989;-79
2021/11/15 10:31:05;;;;;;;10.60;6.20;;;8.80;99.90;;;;;;4931937;29;20098;-77
2021/11/15 10:33:40;;;;;;;13.45;7.22;;;8.80;99.90;;;;;;4932160;29;20401;-77
2021/11/15 10:36:07;;;;;;;10.98;6.57;;;8.80;99.90;;;;;;4932355;29;20055;-78
2021/11/15 10:38:45;;;;;;;11.73;6.35;;;8.90;99.90;;;;;;4920233;29;20054;-80
2021/11/15 10:41:15;;;;;;;11.07;6.50;;;8.90;99.90;;;;;;4916815;29;20051;-78
2021/11/15 10:43:42;;;;;;;12.35;7.13;;;8.80;99.90;;;;;;4931953;29;20091;-78
2021/11/15 10:46:28;;;;;;;12.05;6.05;;;8.90;99.90;;;;;;4932838;29;20079;-79
2021/11/15 10:48:59;;;;;;;12.93;6.65;;;8.80;99.90;;;;;;4931938;29;20148;-77
2021/11/15 10:51:51;;;;;;;11.32;6.28;;;8.80;99.90;;;;;;4931987;29;20134;-77
2021/11/15 10:57:31;;;;;;;12.48;6.53;;;8.70;99.90;;;;;;4932950;29;20059;-77
2021/11/15 11:00:37;;;;;;;11.05;6.38;;;8.70;99.90;;;;;;4930348;29;20107;-78
2021/11/15 11:03:20;;;;;;;11.68;6.57;;;8.70;99.90;;;;;;4928371;29;20055;-78
2021/11/15 11:05:49;;;;;;;11.18;6.43;;;8.70;99.90;;;;;;4931790;29;20048;-78
2021/11/15 11:08:22;;;;;;;9.90;5.68;;;8.70;99.90;;;;;;4931661;29;20056;-76
2021/11/15 11:11:03;;;;;;;11.38;6.57;;;8.70;99.90;;;;;;4931591;29;20497;-78
2021/11/15 11:13:44;;;;;;;11.32;5.97;;;8.70;99.90;;;;;;4930116;29;20089;-77
2021/11/15 11:16:11;;;;;;;11.10;6.05;;;8.70;99.90;;;;;;4913613;29;20044;-79
2021/11/15 11:18:44;;;;;;;11.77;6.20;;;8.70;99.90;;;;;;4931363;29;20044;-78
2021/11/15 11:26:57;;;;;;;12.13;6.88;;;8.80;99.90;;;;;;4921146;29;20055;-79
2021/11/15 11:29:28;;;;;;;11.93;6.80;;;8.80;99.90;;;;;;4928460;29;20048;-79
2021/11/15 11:31:59;;;;;;;13.18;7.15;;;8.80;99.90;;;;;;4931712;29;20445;-81
2021/11/15 11:34:29;;;;;;;11.77;7.00;;;8.90;99.90;;;;;;4925152;29;20138;-79
2021/11/15 11:36:56;;;;;;;13.68;6.88;;;8.90;99.90;;;;;;4931821;29;20091;-80
2021/11/15 11:39:25;;;;;;;12.40;7.07;;;8.90;99.90;;;;;;4930089;29;20473;-80
2021/11/15 11:41:58;;;;;;;11.07;6.18;;;8.90;99.90;;;;;;4931369;29;20060;-77
2021/11/15 11:44:27;;;;;;;13.50;6.63;;;8.90;99.90;;;;;;4931985;29;20110;-78
2021/11/15 11:46:55;;;;;;;11.30;6.55;;;8.90;99.90;;;;;;4931706;29;20493;-78
2021/11/15 11:49:26;;;;;;;12.00;6.95;;;8.90;99.90;;;;;;4929972;29;20052;-80
2021/11/15 11:51:58;;;;;;;12.48;6.63;;;8.90;99.90;;;;;;4913560;29;20084;-77
2021/11/15 11:54:29;;;;;;;10.73;6.43;;;9.00;99.90;;;;;;4912149;29;20051;-80
2021/11/15 11:57:12;;;;;;;11.95;6.60;;;8.90;99.90;;;;;;4912847;29;20143;-78
2021/11/15 11:59:58;;;;;;;12.27;7.05;;;9.00;99.90;;;;;;4913014;29;20127;-80
2021/11/15 12:02:28;;;;;;;13.05;7.03;;;9.00;99.90;;;;;;4912791;29;20450;-79
2021/11/15 12:05:00;;;;;;;11.73;6.15;;;9.00;99.90;;;;;;4913638;29;20084;-80
2021/11/15 12:07:32;;;;;;;11.30;6.32;;;9.00;99.90;;;;;;4912088;29;20565;-79
2021/11/15 12:10:01;;;;;;;12.15;6.57;;;9.00;99.90;;;;;;4916421;29;20039;-80
2021/11/15 12:12:58;;;;;;;10.93;6.18;;;9.00;99.90;;;;;;4929892;29;20134;-79
2021/11/15 12:15:43;;;;;;;11.18;6.22;;;9.00;99.90;;;;;;4921452;29;20501;-77
2021/11/15 12:18:22;;;;;;;12.25;6.28;;;9.10;99.90;;;;;;4912555;29;20056;-79
2021/11/15 12:21:21;;;;;;;12.63;6.75;;;9.10;99.90;;;;;;4912071;29;20494;-81
2021/11/15 12:24:15;;;;;;;11.00;6.03;;;9.10;99.90;;;;;;4912440;29;20046;-78
2021/11/15 12:26:47;;;;;;;11.73;6.65;;;9.10;99.90;;;;;;4911735;29;20052;-80
2021/11/15 12:29:26;;;;;;;11.40;6.30;;;9.00;99.90;;;;;;4915825;29;20379;-81
2021/11/15 12:31:58;;;;;;;12.27;6.53;;;9.10;99.90;;;;;;4925257;29;20478;-79
2021/11/15 12:34:28;;;;;;;12.15;6.60;;;9.10;99.90;;;;;;4930202;29;20134;-81
2021/11/15 12:36:57;;;;;;;10.35;6.10;;;9.10;99.90;;;;;;4912200;29;20056;-81
2021/11/15 12:39:29;;;;;;;9.88;6.15;;;9.00;99.90;;;;;;4911758;29;20425;-81
2021/11/15 12:41:58;;;;;;;13.73;6.72;;;9.00;99.90;;;;;;4912204;29;20112;-81
2021/11/15 12:44:43;;;;;;;11.23;6.88;;;9.00;99.90;;;;;;4913001;29;20067;-79
2021/11/15 12:47:16;;;;;;;11.02;5.97;;;9.00;99.90;;;;;;4912473;29;20133;-77
2021/11/15 12:49:53;;;;;;;12.52;6.47;;;9.00;99.90;;;;;;4912405;29;20143;-81
2021/11/15 12:52:24;;;;;;;12.90;6.78;;;9.00;99.90;;;;;;4927230;29;20486;-80
2021/11/15 12:54:58;;;;;;;12.15;6.72;;;9.00;99.90;;;;;;4931552;29;20119;-80
2021/11/15 12:57:34;;;;;;;13.67;7.50;;;9.00;99.90;;;;;;4931381;29;20102;-80
2021/11/15 13:00:06;;;;;;;12.43;7.20;;;8.90;99.90;;;;;;4931512;29;20972;-79
2021/11/15 13:02:34;;;;;;;12.60;7.07;;;9.00;99.90;;;;;;4931152;29;20540;-80
2021/11/15 13:05:02;;;;;;;13.82;7.55;;;8.90;99.90;;;;;;4932054;29;20131;-80
2021/11/15 13:07:29;;;;;;;13.15;7.35;;;8.90;99.90;;;;;;4934770;29;20118;-83
2021/11/15 13:09:59;;;;;;;13.65;7.28;;;8.90;99.90;;;;;;4940190;29;20047;-84
2021/11/15 13:12:30;;;;;;;14.30;7.55;;;9.00;99.90;;;;;;4937238;29;20051;-81
2021/11/15 13:15:00;;;;;;;12.38;7.15;;;9.10;99.90;;;;;;4936914;29;20737;-82
2021/11/15 13:17:28;;;;;;;12.98;7.15;;;9.20;99.90;;;;;;4934754;29;20138;-80
2021/11/15 13:19:59;;;;;;;12.73;7.13;;;9.20;99.90;;;;;;4932932;29;20087;-80
2021/11/15 13:22:27;;;;;;;13.32;7.82;;;9.30;99.90;;;;;;4930778;29;20052;-82
2021/11/15 13:24:54;;;;;;;13.90;7.80;;;9.30;99.90;;;;;;4925660;29;20135;-82
2021/11/15 13:27:25;;;;;;;13.68;7.25;;;9.30;99.90;;;;;;4917738;29;20139;-84
2021/11/15 13:29:53;;;;;;;14.65;8.25;;;9.20;99.90;;;;;;4915929;29;20119;-84
2021/11/15 13:32:22;;;;;;;14.60;7.95;;;9.20;99.90;;;;;;4916015;29;20055;-83
2021/11/15 13:34:51;;;;;;;17.08;9.13;;;9.10;99.90;;;;;;4915614;29;20063;-82
2021/11/15 13:37:19;;;;;;;15.05;8.68;;;9.10;99.90;;;;;;4915665;29;20151;-82
2021/11/15 13:39:47;;;;;;;17.40;9.35;;;9.00;99.90;;;;;;4916417;29;20052;-80
2021/11/15 13:42:15;;;;;;;19.15;10.35;;;9.00;99.90;;;;;;4915609;29;20083;-80
2021/11/15 13:44:44;;;;;;;19.77;11.10;;;8.90;99.90;;;;;;4915108;29;20079;-79
2021/11/15 13:47:13;;;;;;;19.65;10.35;;;8.90;99.90;;;;;;4914990;29;20052;-81
2021/11/15 13:49:40;;;;;;;21.65;10.93;;;8.90;99.90;;;;;;4915151;29;20079;-80
2021/11/15 13:52:08;;;;;;;20.15;10.82;;;8.80;99.90;;;;;;4915907;29;20083;-82
2021/11/15 13:54:37;;;;;;;20.65;10.98;;;8.80;99.90;;;;;;4915271;29;20062;-81
2021/11/15 13:57:05;;;;;;;20.13;10.73;;;8.70;99.90;;;;;;4914468;29;20246;-80
2021/11/15 13:59:33;;;;;;;21.77;11.45;;;8.70;99.90;;;;;;4924582;29;20071;-80
2021/11/15 14:02:01;;;;;;;19.80;10.82;;;8.60;99.90;;;;;;4933539;29;20056;-80
2021/11/15 14:04:29;;;;;;;19.45;10.77;;;8.60;99.90;;;;;;4933603;29;20501;-82
2021/11/15 14:06:56;;;;;;;18.98;10.45;;;8.60;99.90;;;;;;4933686;29;20086;-78
2021/11/15 14:09:23;;;;;;;21.80;12.07;;;8.60;99.90;;;;;;4933187;29;20055;-78
2021/11/15 14:11:50;;;;;;;17.85;10.07;;;8.60;99.90;;;;;;4933356;29;20131;-79
2021/11/15 14:14:19;;;;;;;21.75;10.77;;;8.50;99.90;;;;;;4932090;29;20140;-80
2021/11/15 14:16:46;;;;;;;21.42;10.75;;;8.60;99.90;;;;;;4933069;29;20071;-80
2021/11/15 14:19:15;;;;;;;21.52;11.07;;;8.50;99.90;;;;;;4933496;29;20079;-78
2021/11/15 14:21:42;;;;;;;19.85;11.07;;;8.50;99.90;;;;;;4933219;29;20063;-80
2021/11/15 14:24:09;;;;;;;22.17;11.40;;;8.60;99.90;;;;;;4932661;29;20082;-79
2021/11/15 14:26:36;;;;;;;20.35;10.93;;;8.60;99.90;;;;;;4933483;29;20126;-79
2021/11/15 14:29:04;;;;;;;18.58;9.80;;;8.60;99.90;;;;;;4922356;29;20163;-80
2021/11/15 14:31:31;;;;;;;19.70;10.32;;;8.60;99.90;;;;;;4913976;29;20594;-78
2021/11/15 14:33:58;;;;;;;20.85;10.98;;;8.60;99.90;;;;;;4914102;29;20143;-79
2021/11/15 14:36:27;;;;;;;21.15;10.77;;;8.60;99.90;;;;;;4918341;29;20127;-79
2021/11/15 14:38:54;;;;;;;18.38;10.55;;;8.60;99.90;;;;;;4933284;29;20525;-80
2021/11/15 14:41:21;;;;;;;18.48;10.20;;;8.60;99.90;;;;;;4933107;29;20169;-80
2021/11/15 14:43:48;;;;;;;18.13;10.32;;;8.60;99.90;;;;;;4932716;29;20814;-78
2021/11/15 14:46:15;;;;;;;19.33;10.20;;;8.50;99.90;;;;;;4932954;29;20209;-79
2021/11/15 14:48:42;;;;;;;19.38;10.77;;;8.50;99.90;;;;;;4932390;29;20079;-79
2021/11/15 14:51:09;;;;;;;19.42;11.00;;;8.50;99.90;;;;;;4927860;29;20086;-76
2021/11/15 14:53:38;;;;;;;23.10;12.10;;;8.60;99.90;;;;;;4914041;29;20056;-77
2021/11/15 14:56:05;;;;;;;24.02;11.38;;;8.60;99.90;;;;;;4913642;29;20103;-81
2021/11/15 14:58:32;;;;;;;24.45;12.95;;;8.50;99.90;;;;;;4913842;29;20126;-80
2021/11/15 15:01:00;;;;;;;21.50;11.80;;;8.50;99.90;;;;;;4913217;29;20143;-80
2021/11/15 15:03:29;;;;;;;21.65;11.48;;;8.50;99.90;;;;;;4912932;29;20143;-79
2021/11/15 15:05:57;;;;;;;21.67;10.85;;;8.50;99.90;;;;;;4918795;29;20131;-81
2021/11/15 15:08:24;;;;;;;19.25;11.00;;;8.50;99.90;;;;;;4932683;29;20043;-79
2021/11/15 15:10:52;;;;;;;20.13;10.75;;;8.60;99.90;;;;;;4932431;29;20497;-80
2021/11/15 15:13:19;;;;;;;20.05;11.50;;;8.50;99.90;;;;;;4932301;29;20051;-80
2021/11/15 15:15:46;;;;;;;21.02;11.45;;;8.60;99.90;;;;;;4932075;29;20525;-78
2021/11/15 15:18:13;;;;;;;24.20;13.68;;;8.60;99.90;;;;;;4932525;29;20455;-79
2021/11/15 15:20:42;;;;;;;24.48;12.80;;;8.60;99.90;;;;;;4926818;29;20084;-78
2021/11/15 15:23:12;;;;;;;26.75;13.90;;;8.60;99.90;;;;;;4913167;29;20118;-79
2021/11/15 15:25:39;;;;;;;25.75;13.35;;;8.60;99.90;;;;;;4913232;29;20044;-78
2021/11/15 15:28:09;;;;;;;23.00;13.38;;;8.50;99.90;;;;;;4912093;29;20175;-80
2021/11/15 15:30:37;;;;;;;26.52;13.60;;;8.50;99.90;;;;;;4912936;29;20138;-79
2021/11/15 15:33:05;;;;;;;26.58;13.55;;;8.50;99.90;;;;;;4913161;29;20139;-81
2021/11/15 15:35:33;;;;;;;25.30;13.25;;;8.50;99.90;;;;;;4919364;29;20086;-80
2021/11/15 15:38:00;;;;;;;25.38;13.60;;;8.50;99.90;;;;;;4931863;29;20134;-80
2021/11/15 15:40:28;;;;;;;24.45;12.90;;;8.50;99.90;;;;;;4931875;29;20138;-79
2021/11/15 15:42:59;;;;;;;26.27;13.63;;;8.40;99.90;;;;;;4931777;29;20060;-80
2021/11/15 15:45:30;;;;;;;25.60;13.55;;;8.40;99.90;;;;;;4932365;29;20055;-78
2021/11/15 15:47:59;;;;;;;26.52;14.10;;;8.40;99.90;;;;;;4930477;29;20071;-81
2021/11/15 15:50:27;;;;;;;25.83;13.52;;;8.40;99.90;;;;;;4923436;29;20048;-81
2021/11/15 15:52:55;;;;;;;26.27;14.10;;;8.40;99.90;;;;;;4912617;29;20410;-79
2021/11/15 15:55:22;;;;;;;25.77;14.15;;;8.40;99.90;;;;;;4912109;29;20135;-78
2021/11/15 15:57:49;;;;;;;24.75;13.68;;;8.40;99.90;;;;;;4912719;29;20142;-79
2021/11/15 16:00:19;;;;;;;24.35;12.73;;;8.40;99.90;;;;;;4915615;29;20131;-78
2021/11/15 16:02:50;;;;;;;26.02;14.07;;;8.40;99.90;;;;;;4930056;29;20481;-79
2021/11/15 16:05:31;;;;;;;28.30;14.27;;;8.40;99.90;;;;;;4930146;29;20052;-77
2021/11/15 16:08:05;;;;;;;25.60;14.50;;;8.40;99.90;;;;;;4930764;29;20043;-80
2021/11/15 16:10:50;;;;;;;27.13;14.27;;;8.30;99.90;;;;;;4931489;29;20216;-79
2021/11/15 16:13:37;;;;;;;25.00;12.85;;;8.30;99.90;;;;;;4931080;29;20052;-80
2021/11/15 16:16:23;;;;;;;27.10;13.80;;;8.30;99.90;;;;;;4931483;29;20051;-77
2021/11/15 16:18:52;;;;;;;25.23;13.27;;;8.30;99.90;;;;;;4931258;29;20446;-77
2021/11/15 16:21:20;;;;;;;25.52;13.18;;;8.20;99.90;;;;;;4929043;29;20056;-81
2021/11/15 16:23:47;;;;;;;26.05;13.55;;;8.20;99.90;;;;;;4931414;29;20082;-79
2021/11/15 16:26:15;;;;;;;26.02;13.20;;;8.20;99.90;;;;;;4931067;29;20106;-80
2021/11/15 16:28:42;;;;;;;28.67;13.30;;;8.20;99.90;;;;;;4929184;29;20508;-79
2021/11/15 16:31:09;;;;;;;24.08;13.27;;;8.20;99.90;;;;;;4929664;29;20051;-80
2021/11/15 16:33:37;;;;;;;21.90;12.55;;;8.20;99.90;;;;;;4930230;29;20413;-80
2021/11/15 16:36:06;;;;;;;23.05;12.40;;;8.20;99.90;;;;;;4931140;29;20142;-79
2021/11/15 16:38:33;;;;;;;23.77;12.70;;;8.20;99.90;;;;;;4931461;29;20123;-80
2021/11/15 16:41:00;;;;;;;22.23;12.13;;;8.20;99.90;;;;;;4933964;29;20079;-80
2021/11/15 16:43:27;;;;;;;21.40;11.40;;;8.20;99.90;;;;;;4934398;29;20075;-79
2021/11/15 16:45:54;;;;;;;21.00;11.88;;;8.20;99.90;;;;;;4933739;29;20513;-80
2021/11/15 16:48:21;;;;;;;19.23;10.98;;;8.20;99.90;;;;;;4933405;29;20046;-80
2021/11/15 16:50:50;;;;;;;20.98;11.02;;;8.20;99.90;;;;;;4922152;29;20143;-78
2021/11/15 16:53:18;;;;;;;20.63;11.30;;;8.20;99.90;;;;;;4918361;29;20048;-80
2021/11/15 16:55:46;;;;;;;20.90;11.07;;;8.20;99.90;;;;;;4937521;29;20143;-80
2021/11/15 16:58:15;;;;;;;21.77;11.63;;;8.20;99.90;;;;;;4935052;29;20051;-80
2021/11/15 17:00:45;;;;;;;18.98;11.35;;;8.20;99.90;;;;;;4934869;29;20067;-79
2021/11/15 17:03:13;;;;;;;19.40;11.05;;;8.20;99.90;;;;;;4934578;29;20127;-80
2021/11/15 17:05:44;;;;;;;20.88;11.38;;;8.20;99.90;;;;;;4927680;29;20160;-79
2021/11/15 17:08:15;;;;;;;21.58;11.88;;;8.20;99.90;;;;;;4934350;29;20420;-80
2021/11/15 17:10:48;;;;;;;18.80;10.98;;;8.20;99.90;;;;;;4934609;29;20052;-80
2021/11/15 17:13:19;;;;;;;21.33;11.57;;;8.20;99.90;;;;;;4934589;29;20095;-79
2021/11/15 17:15:48;;;;;;;22.33;10.88;;;8.20;99.90;;;;;;4934791;29;20051;-78
2021/11/15 17:18:16;;;;;;;19.20;10.85;;;8.20;99.90;;;;;;4933760;29;20059;-80
2021/11/15 17:20:47;;;;;;;23.52;12.10;;;8.20;99.90;;;;;;4933812;29;20083;-80
2021/11/15 17:23:14;;;;;;;20.00;11.68;;;8.20;99.90;;;;;;4933811;29;20107;-78
2021/11/15 17:25:43;;;;;;;21.55;11.77;;;8.20;99.90;;;;;;4933861;29;20401;-81
2021/11/15 17:28:12;;;;;;;21.38;11.10;;;8.20;99.90;;;;;;4933854;29;20481;-80
2021/11/15 17:30:40;;;;;;;20.77;11.10;;;8.20;99.90;;;;;;4933968;29;20118;-80
2021/11/15 17:33:07;;;;;;;21.95;11.70;;;8.20;99.90;;;;;;4932520;29;20138;-79
2021/11/15 17:35:35;;;;;;;20.77;11.18;;;8.20;99.90;;;;;;4928494;29;20143;-80
2021/11/15 17:38:04;;;;;;;21.63;11.90;;;8.20;99.90;;;;;;4924324;29;20134;-77
2021/11/15 17:40:31;;;;;;;20.15;11.25;;;8.20;99.90;;;;;;4933663;29;20079;-80
2021/11/15 17:43:00;;;;;;;21.70;11.52;;;8.20;99.90;;;;;;4933727;29;20126;-78
2021/11/15 17:45:32;;;;;;;21.52;12.27;;;8.20;99.90;;;;;;4933202;29;20462;-79
2021/11/15 17:48:00;;;;;;;23.25;12.18;;;8.20;99.90;;;;;;4933254;29;20051;-78
2021/11/15 17:50:30;;;;;;;22.52;12.00;;;8.20;99.90;;;;;;4928459;29;20070;-79
2021/11/15 17:53:04;;;;;;;22.55;12.40;;;8.20;99.90;;;;;;4938194;29;20054;-78
2021/11/15 17:55:40;;;;;;;23.60;12.88;;;8.20;99.90;;;;;;4930987;29;20506;-78
2021/11/15 17:58:22;;;;;;;22.38;12.05;;;8.20;99.90;;;;;;4932789;29;20117;-78
2021/11/15 18:00:50;;;;;;;20.67;11.30;;;8.20;99.90;;;;;;4932894;29;20066;-80
2021/11/15 18:03:17;;;;;;;21.88;11.85;;;8.20;99.90;;;;;;4933371;29;20151;-78
2021/11/15 18:05:44;;;;;;;22.98;11.98;;;8.20;99.90;;;;;;4932116;29;20048;-81
2021/11/15 18:08:12;;;;;;;22.02;12.50;;;8.20;99.90;;;;;;4932092;29;20051;-78
2021/11/15 18:10:39;;;;;;;22.65;13.02;;;8.20;99.90;;;;;;4931502;29;20087;-79
2021/11/15 18:13:11;;;;;;;20.98;11.65;;;8.20;99.90;;;;;;4931756;29;20167;-80
2021/11/15 18:15:40;;;;;;;21.70;12.40;;;8.20;99.90;;;;;;4929222;29;21420;-80
2021/11/15 18:18:10;;;;;;;22.20;12.25;;;8.10;99.90;;;;;;4930895;29;20520;-80
2021/11/15 18:20:38;;;;;;;20.98;12.20;;;8.10;99.90;;;;;;4930260;29;20055;-80
2021/11/15 18:23:06;;;;;;;22.00;12.40;;;8.20;99.90;;;;;;4932076;29;20044;-77
2021/11/15 18:25:34;;;;;;;22.42;12.55;;;8.20;99.90;;;;;;4930913;29;20123;-79
2021/11/15 18:28:01;;;;;;;23.83;12.70;;;8.20;99.90;;;;;;4932491;29;20348;-80
2021/11/15 18:30:31;;;;;;;21.90;12.38;;;8.20;99.90;;;;;;4931712;29;20154;-79
2021/11/15 18:32:58;;;;;;;23.13;13.40;;;8.20;99.90;;;;;;4931656;29;20110;-79
2021/11/15 18:35:26;;;;;;;23.88;13.15;;;8.20;99.90;;;;;;4930683;29;20127;-77
2021/11/15 18:37:53;;;;;;;22.02;12.50;;;8.10;99.90;;;;;;4932270;29;20118;-79
2021/11/15 18:40:21;;;;;;;22.05;12.75;;;8.10;99.90;;;;;;4932325;29;20123;-81
2021/11/15 18:42:51;;;;;;;23.95;13.07;;;8.10;99.90;;;;;;4930509;29;20123;-78
2021/11/15 18:45:21;;;;;;;22.58;12.25;;;8.10;99.90;;;;;;4931034;29;20469;-80
2021/11/15 18:47:53;;;;;;;24.35;12.88;;;8.10;99.90;;;;;;4913060;29;20100;-77
2021/11/15 18:50:25;;;;;;;23.00;12.18;;;8.10;99.90;;;;;;4916661;29;20059;-79
2021/11/15 18:52:53;;;;;;;22.75;12.32;;;8.10;99.90;;;;;;4932525;29;20107;-79
2021/11/15 18:55:23;;;;;;;21.40;12.43;;;8.10;99.90;;;;;;4929470;29;20847;-77
2021/11/15 18:57:50;;;;;;;22.73;11.52;;;8.10;99.90;;;;;;4929274;29;20048;-80
2021/11/15 19:00:23;;;;;;;19.55;11.18;;;8.10;99.90;;;;;;4930875;29;20047;-80
2021/11/15 19:02:53;;;;;;;20.65;11.63;;;8.10;99.90;;;;;;4922909;29;20051;-80
2021/11/15 19:05:26;;;;;;;21.65;11.60;;;8.10;99.90;;;;;;4929832;29;20173;-81